sensor_id;sensor_type;location;lat;lon;timestamp;temperature;humidity
18733;DHT22;9495;51.210;2.934;2023-02-02T00:01:43;9.50;99.90
18733;DHT22;9495;51.210;2.934;2023-02-02T00:04:15;9.60;99.90
18733;DHT22;9495;51.210;2.934;2023-02-02T00:06:44;9.50;99.90
18733;DHT22;9495;51.210;2.934;2023-02-02T00:09:14;9.40;99.90
18733;DHT22;9495;51.210;2.934;2023-02-02T00:11:43;9.50;99.90
18733;DHT22;9495;51.210;2.934;2023-02-02T00:14:13;9.60;99.90
18733;DHT22;9495;51.210;2.934;2023-02-02T00:16:42;9.70;99.90
18733;DHT22;9495;51.210;2.934;2023-02-02T00:19:13;9.50;99.90
18733;DHT22;9495;51.210;2.934;2023-02-02T00:21:42;9.50;99.90
18733;DHT22;9495;51.210;2.934;2023-02-02T00:24:11;9.40;99.90
18733;DHT22;9495;51.210;2.934;2023-02-02T00:26:41;9.40;99.90
18733;DHT22;9495;51.210;2.934;2023-02-02T00:29:14;9.50;99.90
18733;DHT22;9495;51.210;2.934;2023-02-02T00:31:43;9.50;99.90
18733;DHT22;9495;51.210;2.934;2023-02-02T00:34:12;9.50;99.90
18733;DHT22;9495;51.210;2.934;2023-02-02T00:36:41;9.40;99.90
18733;DHT22;9495;51.210;2.934;2023-02-02T00:39:10;9.30;99.90
18733;DHT22;9495;51.210;2.934;2023-02-02T00:41:41;9.20;99.90
18733;DHT22;9495;51.210;2.934;2023-02-02T00:44:10;9.30;99.90
18733;DHT22;9495;51.210;2.934;2023-02-02T00:46:57;9.30;99.90
18733;DHT22;9495;51.210;2.934;2023-02-02T00:49:25;9.40;99.90
18733;DHT22;9495;51.210;2.934;2023-02-02T00:51:53;9.40;99.90
18733;DHT22;9495;51.210;2.934;2023-02-02T00:54:22;9.40;99.90
18733;DHT22;9495;51.210;2.934;2023-02-02T00:56:50;9.40;99.90
18733;DHT22;9495;51.210;2.934;2023-02-02T00:59:18;9.40;99.90
18733;DHT22;9495;51.210;2.934;2023-02-02T01:01:47;9.50;99.90
18733;DHT22;9495;51.210;2.934;2023-02-02T01:04:17;9.40;99.90
18733;DHT22;9495;51.210;2.934;2023-02-02T01:06:45;9.30;99.90
18733;DHT22;9495;51.210;2.934;2023-02-02T01:09:13;9.30;99.90
18733;DHT22;9495;51.210;2.934;2023-02-02T01:11:42;9.30;99.90
18733;DHT22;9495;51.210;2.934;2023-02-02T01:14:10;9.30;99.90
18733;DHT22;9495;51.210;2.934;2023-02-02T01:16:39;9.40;99.90
18733;DHT22;9495;51.210;2.934;2023-02-02T01:19:07;9.40;99.90
18733;DHT22;9495;51.210;2.934;2023-02-02T01:21:37;9.40;99.90
18733;DHT22;9495;51.210;2.934;2023-02-02T01:24:06;9.30;99.90
18733;DHT22;9495;51.210;2.934;2023-02-02T01:26:34;9.40;99.90
18733;DHT22;9495;51.210;2.934;2023-02-02T01:29:03;9.30;99.90
18733;DHT22;9495;51.210;2.934;2023-02-02T01:31:31;9.20;99.90
18733;DHT22;9495;51.210;2.934;2023-02-02T01:34:00;9.30;99.90
18733;DHT22;9495;51.210;2.934;2023-02-02T01:36:28;9.20;99.90
18733;DHT22;9495;51.210;2.934;2023-02-02T01:38:58;9.30;99.90
18733;DHT22;9495;51.210;2.934;2023-02-02T01:41:26;9.30;99.90
18733;DHT22;9495;51.210;2.934;2023-02-02T01:43:57;9.30;99.90
18733;DHT22;9495;51.210;2.934;2023-02-02T01:46:27;9.40;99.90
18733;DHT22;9495;51.210;2.934;2023-02-02T01:49:01;9.20;99.90
18733;DHT22;9495;51.210;2.934;2023-02-02T01:51:37;9.30;99.90
18733;DHT22;9495;51.210;2.934;2023-02-02T01:54:11;9.30;99.90
18733;DHT22;9495;51.210;2.934;2023-02-02T01:56:45;9.30;99.90
18733;DHT22;9495;51.210;2.934;2023-02-02T01:59:15;9.40;99.90
18733;DHT22;9495;51.210;2.934;2023-02-02T02:01:45;9.40;99.90
18733;DHT22;9495;51.210;2.934;2023-02-02T02:04:15;9.40;99.90
18733;DHT22;9495;51.210;2.934;2023-02-02T02:06:43;9.40;99.90
18733;DHT22;9495;51.210;2.934;2023-02-02T02:09:13;9.50;99.90
18733;DHT22;9495;51.210;2.934;2023-02-02T02:11:42;9.50;99.90
18733;DHT22;9495;51.210;2.934;2023-02-02T02:14:12;9.40;99.90
18733;DHT22;9495;51.210;2.934;2023-02-02T02:17:10;9.40;99.90
18733;DHT22;9495;51.210;2.934;2023-02-02T02:20:30;9.40;99.90
18733;DHT22;9495;51.210;2.934;2023-02-02T02:26:59;9.20;99.90
18733;DHT22;9495;51.210;2.934;2023-02-02T02:32:37;9.20;99.90
18733;DHT22;9495;51.210;2.934;2023-02-02T02:35:12;9.30;99.90
18733;DHT22;9495;51.210;2.934;2023-02-02T02:37:47;9.30;99.90
18733;DHT22;9495;51.210;2.934;2023-02-02T02:40:23;9.40;99.90
18733;DHT22;9495;51.210;2.934;2023-02-02T02:42:55;9.30;99.90
18733;DHT22;9495;51.210;2.934;2023-02-02T02:45:26;9.20;99.90
18733;DHT22;9495;51.210;2.934;2023-02-02T02:47:56;9.30;99.90
18733;DHT22;9495;51.210;2.934;2023-02-02T02:50:25;9.30;99.90
18733;DHT22;9495;51.210;2.934;2023-02-02T02:52:59;9.30;99.90
18733;DHT22;9495;51.210;2.934;2023-02-02T02:55:32;9.10;99.90
18733;DHT22;9495;51.210;2.934;2023-02-02T02:58:07;9.20;99.90
18733;DHT22;9495;51.210;2.934;2023-02-02T03:00:50;9.20;99.90
18733;DHT22;9495;51.210;2.934;2023-02-02T03:03:32;9.20;99.90
18733;DHT22;9495;51.210;2.934;2023-02-02T03:06:09;9.20;99.90
18733;DHT22;9495;51.210;2.934;2023-02-02T03:08:41;9.20;99.90
18733;DHT22;9495;51.210;2.934;2023-02-02T03:11:12;9.30;99.90
18733;DHT22;9495;51.210;2.934;2023-02-02T03:13:41;9.30;99.90
18733;DHT22;9495;51.210;2.934;2023-02-02T03:16:10;9.30;99.90
18733;DHT22;9495;51.210;2.934;2023-02-02T03:18:40;9.20;99.90
18733;DHT22;9495;51.210;2.934;2023-02-02T03:21:08;9.30;99.90
18733;DHT22;9495;51.210;2.934;2023-02-02T03:23:37;9.30;99.90
18733;DHT22;9495;51.210;2.934;2023-02-02T03:26:05;9.40;99.90
18733;DHT22;9495;51.210;2.934;2023-02-02T03:28:34;9.40;99.90
18733;DHT22;9495;51.210;2.934;2023-02-02T03:31:03;9.40;99.90
18733;DHT22;9495;51.210;2.934;2023-02-02T03:33:32;9.40;99.90
18733;DHT22;9495;51.210;2.934;2023-02-02T03:36:06;9.50;99.90
18733;DHT22;9495;51.210;2.934;2023-02-02T03:38:34;9.50;99.90
18733;DHT22;9495;51.210;2.934;2023-02-02T03:41:04;9.50;99.90
18733;DHT22;9495;51.210;2.934;2023-02-02T03:43:32;9.60;99.90
18733;DHT22;9495;51.210;2.934;2023-02-02T03:46:02;9.60;99.90
18733;DHT22;9495;51.210;2.934;2023-02-02T03:48:34;9.50;99.90
18733;DHT22;9495;51.210;2.934;2023-02-02T03:51:06;9.40;99.90
18733;DHT22;9495;51.210;2.934;2023-02-02T03:53:34;9.30;99.90
18733;DHT22;9495;51.210;2.934;2023-02-02T03:56:03;9.20;99.90
18733;DHT22;9495;51.210;2.934;2023-02-02T03:58:32;9.20;99.90
18733;DHT22;9495;51.210;2.934;2023-02-02T04:01:02;9.10;99.90
18733;DHT22;9495;51.210;2.934;2023-02-02T04:03:31;9.20;99.90
18733;DHT22;9495;51.210;2.934;2023-02-02T04:06:00;9.20;99.90
18733;DHT22;9495;51.210;2.934;2023-02-02T04:08:29;9.20;99.90
18733;DHT22;9495;51.210;2.934;2023-02-02T04:10:58;9.10;99.90
18733;DHT22;9495;51.210;2.934;2023-02-02T04:13:27;9.10;99.90
18733;DHT22;9495;51.210;2.934;2023-02-02T04:15:58;9.10;99.90
18733;DHT22;9495;51.210;2.934;2023-02-02T04:18:27;9.00;99.90
18733;DHT22;9495;51.210;2.934;2023-02-02T04:20:56;9.00;99.90
18733;DHT22;9495;51.210;2.934;2023-02-02T04:23:26;9.10;99.90
18733;DHT22;9495;51.210;2.934;2023-02-02T04:25:56;9.00;99.90
18733;DHT22;9495;51.210;2.934;2023-02-02T04:28:26;9.00;99.90
18733;DHT22;9495;51.210;2.934;2023-02-02T04:30:55;9.00;99.90
18733;DHT22;9495;51.210;2.934;2023-02-02T04:33:25;9.10;99.90
18733;DHT22;9495;51.210;2.934;2023-02-02T04:35:55;9.10;99.90
18733;DHT22;9495;51.210;2.934;2023-02-02T04:38:23;9.00;99.90
18733;DHT22;9495;51.210;2.934;2023-02-02T04:40:51;9.00;99.90
18733;DHT22;9495;51.210;2.934;2023-02-02T04:43:21;9.00;99.90
18733;DHT22;9495;51.210;2.934;2023-02-02T04:45:54;9.00;99.90
18733;DHT22;9495;51.210;2.934;2023-02-02T04:48:23;9.10;99.90
18733;DHT22;9495;51.210;2.934;2023-02-02T04:50:57;9.00;99.90
18733;DHT22;9495;51.210;2.934;2023-02-02T04:53:25;9.10;99.90
18733;DHT22;9495;51.210;2.934;2023-02-02T04:55:54;9.10;99.90
18733;DHT22;9495;51.210;2.934;2023-02-02T04:58:23;9.10;99.90
18733;DHT22;9495;51.210;2.934;2023-02-02T05:00:52;9.10;99.90
18733;DHT22;9495;51.210;2.934;2023-02-02T05:03:20;9.10;99.90
18733;DHT22;9495;51.210;2.934;2023-02-02T05:05:49;9.20;99.90
18733;DHT22;9495;51.210;2.934;2023-02-02T05:08:17;9.20;99.90
18733;DHT22;9495;51.210;2.934;2023-02-02T05:10:46;9.20;99.90
18733;DHT22;9495;51.210;2.934;2023-02-02T05:13:16;9.10;99.90
18733;DHT22;9495;51.210;2.934;2023-02-02T05:15:46;9.10;99.90
18733;DHT22;9495;51.210;2.934;2023-02-02T05:18:15;9.10;99.90
18733;DHT22;9495;51.210;2.934;2023-02-02T05:20:43;9.20;99.90
18733;DHT22;9495;51.210;2.934;2023-02-02T05:23:12;9.20;99.90
18733;DHT22;9495;51.210;2.934;2023-02-02T05:25:40;9.20;99.90
18733;DHT22;9495;51.210;2.934;2023-02-02T05:28:08;9.20;99.90
18733;DHT22;9495;51.210;2.934;2023-02-02T05:30:38;9.10;99.90
18733;DHT22;9495;51.210;2.934;2023-02-02T05:33:08;9.20;99.90
18733;DHT22;9495;51.210;2.934;2023-02-02T05:35:37;9.10;99.90
18733;DHT22;9495;51.210;2.934;2023-02-02T05:38:05;9.10;99.90
18733;DHT22;9495;51.210;2.934;2023-02-02T05:40:34;9.10;99.90
18733;DHT22;9495;51.210;2.934;2023-02-02T05:43:02;9.20;99.90
18733;DHT22;9495;51.210;2.934;2023-02-02T05:45:31;9.10;99.90
18733;DHT22;9495;51.210;2.934;2023-02-02T05:47:59;9.30;99.90
18733;DHT22;9495;51.210;2.934;2023-02-02T05:50:29;9.20;99.90
18733;DHT22;9495;51.210;2.934;2023-02-02T05:52:58;9.10;99.90
18733;DHT22;9495;51.210;2.934;2023-02-02T05:55:26;9.10;99.90
18733;DHT22;9495;51.210;2.934;2023-02-02T05:57:55;9.00;99.90
18733;DHT22;9495;51.210;2.934;2023-02-02T06:00:24;9.10;99.90
18733;DHT22;9495;51.210;2.934;2023-02-02T06:02:52;9.30;99.90
18733;DHT22;9495;51.210;2.934;2023-02-02T06:05:21;9.20;99.90
18733;DHT22;9495;51.210;2.934;2023-02-02T06:07:51;9.20;99.90
18733;DHT22;9495;51.210;2.934;2023-02-02T06:10:19;9.10;99.90
18733;DHT22;9495;51.210;2.934;2023-02-02T06:12:48;9.20;99.90
18733;DHT22;9495;51.210;2.934;2023-02-02T06:15:16;9.10;99.90
18733;DHT22;9495;51.210;2.934;2023-02-02T06:17:44;9.10;99.90
18733;DHT22;9495;51.210;2.934;2023-02-02T06:20:13;9.00;99.90
18733;DHT22;9495;51.210;2.934;2023-02-02T06:22:41;9.10;99.90
18733;DHT22;9495;51.210;2.934;2023-02-02T06:25:11;9.10;99.90
18733;DHT22;9495;51.210;2.934;2023-02-02T06:27:39;8.90;99.90
18733;DHT22;9495;51.210;2.934;2023-02-02T06:30:09;9.10;99.90
18733;DHT22;9495;51.210;2.934;2023-02-02T06:32:37;9.00;99.90
18733;DHT22;9495;51.210;2.934;2023-02-02T06:35:07;9.20;99.90
18733;DHT22;9495;51.210;2.934;2023-02-02T06:37:35;9.20;99.90
18733;DHT22;9495;51.210;2.934;2023-02-02T06:40:06;9.10;99.90
18733;DHT22;9495;51.210;2.934;2023-02-02T06:42:36;9.00;99.90
18733;DHT22;9495;51.210;2.934;2023-02-02T06:45:05;8.90;99.90
18733;DHT22;9495;51.210;2.934;2023-02-02T06:47:33;9.00;99.90
18733;DHT22;9495;51.210;2.934;2023-02-02T06:50:02;8.90;99.90
18733;DHT22;9495;51.210;2.934;2023-02-02T06:52:31;8.90;99.90
18733;DHT22;9495;51.210;2.934;2023-02-02T06:54:59;8.80;99.90
18733;DHT22;9495;51.210;2.934;2023-02-02T06:57:27;8.80;99.90
18733;DHT22;9495;51.210;2.934;2023-02-02T06:59:57;8.80;99.90
18733;DHT22;9495;51.210;2.934;2023-02-02T07:02:25;8.70;99.90
18733;DHT22;9495;51.210;2.934;2023-02-02T07:04:54;8.80;99.90
18733;DHT22;9495;51.210;2.934;2023-02-02T07:07:22;8.80;99.90
18733;DHT22;9495;51.210;2.934;2023-02-02T07:09:51;8.70;99.90
18733;DHT22;9495;51.210;2.934;2023-02-02T07:12:24;9.40;99.90
18733;DHT22;9495;51.210;2.934;2023-02-02T07:14:53;9.10;99.90
18733;DHT22;9495;51.210;2.934;2023-02-02T07:17:23;8.90;99.90
18733;DHT22;9495;51.210;2.934;2023-02-02T07:19:51;8.90;99.90
18733;DHT22;9495;51.210;2.934;2023-02-02T07:22:19;8.90;99.90
18733;DHT22;9495;51.210;2.934;2023-02-02T07:24:48;8.70;99.90
18733;DHT22;9495;51.210;2.934;2023-02-02T07:27:17;8.70;99.90
18733;DHT22;9495;51.210;2.934;2023-02-02T07:29:45;8.50;99.90
18733;DHT22;9495;51.210;2.934;2023-02-02T07:32:13;8.80;99.90
18733;DHT22;9495;51.210;2.934;2023-02-02T07:34:43;8.70;99.90
18733;DHT22;9495;51.210;2.934;2023-02-02T07:37:12;8.50;99.90
18733;DHT22;9495;51.210;2.934;2023-02-02T07:39:40;8.50;99.90
18733;DHT22;9495;51.210;2.934;2023-02-02T07:42:10;8.40;99.90
18733;DHT22;9495;51.210;2.934;2023-02-02T07:44:38;8.50;99.90
18733;DHT22;9495;51.210;2.934;2023-02-02T07:47:07;8.60;99.90
18733;DHT22;9495;51.210;2.934;2023-02-02T07:49:36;8.50;99.90
18733;DHT22;9495;51.210;2.934;2023-02-02T07:52:05;8.60;99.90
18733;DHT22;9495;51.210;2.934;2023-02-02T07:54:34;8.90;99.90
18733;DHT22;9495;51.210;2.934;2023-02-02T07:57:02;8.90;99.90
18733;DHT22;9495;51.210;2.934;2023-02-02T07:59:30;9.50;99.90
18733;DHT22;9495;51.210;2.934;2023-02-02T08:01:59;9.70;99.90
18733;DHT22;9495;51.210;2.934;2023-02-02T08:04:28;9.20;99.90
18733;DHT22;9495;51.210;2.934;2023-02-02T08:06:56;9.60;99.90
18733;DHT22;9495;51.210;2.934;2023-02-02T08:09:26;9.70;99.90
18733;DHT22;9495;51.210;2.934;2023-02-02T08:11:54;10.40;99.90
18733;DHT22;9495;51.210;2.934;2023-02-02T08:14:27;10.30;99.90
18733;DHT22;9495;51.210;2.934;2023-02-02T08:16:56;10.40;99.90
18733;DHT22;9495;51.210;2.934;2023-02-02T08:19:24;10.70;99.90
18733;DHT22;9495;51.210;2.934;2023-02-02T08:21:53;10.60;99.90
18733;DHT22;9495;51.210;2.934;2023-02-02T08:24:21;10.40;99.90
18733;DHT22;9495;51.210;2.934;2023-02-02T08:26:51;10.40;99.90
18733;DHT22;9495;51.210;2.934;2023-02-02T08:29:20;10.50;99.90
18733;DHT22;9495;51.210;2.934;2023-02-02T08:31:48;10.70;99.90
18733;DHT22;9495;51.210;2.934;2023-02-02T08:34:17;10.40;99.90
18733;DHT22;9495;51.210;2.934;2023-02-02T08:36:45;10.20;99.90
18733;DHT22;9495;51.210;2.934;2023-02-02T08:39:14;10.00;99.90
18733;DHT22;9495;51.210;2.934;2023-02-02T08:41:42;9.80;99.90
18733;DHT22;9495;51.210;2.934;2023-02-02T08:44:13;10.50;99.90
18733;DHT22;9495;51.210;2.934;2023-02-02T08:46:42;10.80;99.90
18733;DHT22;9495;51.210;2.934;2023-02-02T08:49:11;10.30;99.90
18733;DHT22;9495;51.210;2.934;2023-02-02T08:51:39;9.70;99.90
18733;DHT22;9495;51.210;2.934;2023-02-02T08:54:09;10.70;99.90
18733;DHT22;9495;51.210;2.934;2023-02-02T08:56:37;10.00;99.90
18733;DHT22;9495;51.210;2.934;2023-02-02T08:59:06;9.80;99.90
18733;DHT22;9495;51.210;2.934;2023-02-02T09:01:36;9.50;99.90
18733;DHT22;9495;51.210;2.934;2023-02-02T09:04:05;9.30;99.90
18733;DHT22;9495;51.210;2.934;2023-02-02T09:06:35;9.30;99.90
18733;DHT22;9495;51.210;2.934;2023-02-02T09:09:04;9.20;99.90
18733;DHT22;9495;51.210;2.934;2023-02-02T09:11:34;9.40;99.90
18733;DHT22;9495;51.210;2.934;2023-02-02T09:14:03;9.40;99.90
18733;DHT22;9495;51.210;2.934;2023-02-02T09:16:34;10.30;99.90
18733;DHT22;9495;51.210;2.934;2023-02-02T09:19:03;9.80;99.90
18733;DHT22;9495;51.210;2.934;2023-02-02T09:21:31;10.50;99.90
18733;DHT22;9495;51.210;2.934;2023-02-02T09:24:07;9.80;99.90
18733;DHT22;9495;51.210;2.934;2023-02-02T09:26:36;9.70;99.90
18733;DHT22;9495;51.210;2.934;2023-02-02T09:29:06;9.80;99.90
18733;DHT22;9495;51.210;2.934;2023-02-02T09:31:36;9.80;99.90
18733;DHT22;9495;51.210;2.934;2023-02-02T09:34:06;9.60;99.90
18733;DHT22;9495;51.210;2.934;2023-02-02T09:36:35;9.60;99.90
18733;DHT22;9495;51.210;2.934;2023-02-02T09:39:05;9.80;99.90
18733;DHT22;9495;51.210;2.934;2023-02-02T09:50:28;10.20;99.90
18733;DHT22;9495;51.210;2.934;2023-02-02T09:53:03;10.10;99.90
18733;DHT22;9495;51.210;2.934;2023-02-02T09:55:36;10.10;99.90
18733;DHT22;9495;51.210;2.934;2023-02-02T09:58:11;9.90;99.90
18733;DHT22;9495;51.210;2.934;2023-02-02T10:00:45;9.90;99.90
18733;DHT22;9495;51.210;2.934;2023-02-02T10:03:20;10.10;99.90
18733;DHT22;9495;51.210;2.934;2023-02-02T10:05:52;9.90;99.90
18733;DHT22;9495;51.210;2.934;2023-02-02T10:08:26;10.20;99.90
18733;DHT22;9495;51.210;2.934;2023-02-02T10:11:07;10.50;99.90
18733;DHT22;9495;51.210;2.934;2023-02-02T10:13:41;10.20;99.90
18733;DHT22;9495;51.210;2.934;2023-02-02T10:16:14;10.10;99.90
18733;DHT22;9495;51.210;2.934;2023-02-02T10:18:48;10.00;99.90
18733;DHT22;9495;51.210;2.934;2023-02-02T10:21:25;10.30;99.90
18733;DHT22;9495;51.210;2.934;2023-02-02T10:23:54;10.10;99.90
18733;DHT22;9495;51.210;2.934;2023-02-02T10:26:34;10.20;99.90
18733;DHT22;9495;51.210;2.934;2023-02-02T10:29:14;10.50;99.90
18733;DHT22;9495;51.210;2.934;2023-02-02T10:31:48;10.40;99.90
18733;DHT22;9495;51.210;2.934;2023-02-02T10:34:22;10.60;99.90
18733;DHT22;9495;51.210;2.934;2023-02-02T10:37:21;10.50;99.90
18733;DHT22;9495;51.210;2.934;2023-02-02T10:40:11;10.20;99.90
18733;DHT22;9495;51.210;2.934;2023-02-02T10:42:54;10.80;99.90
18733;DHT22;9495;51.210;2.934;2023-02-02T10:45:42;10.50;99.90
18733;DHT22;9495;51.210;2.934;2023-02-02T10:48:14;10.60;99.90
18733;DHT22;9495;51.210;2.934;2023-02-02T10:50:46;10.90;99.90
18733;DHT22;9495;51.210;2.934;2023-02-02T10:53:15;10.30;99.90
18733;DHT22;9495;51.210;2.934;2023-02-02T10:55:49;10.20;99.90
18733;DHT22;9495;51.210;2.934;2023-02-02T10:58:25;11.20;99.90
18733;DHT22;9495;51.210;2.934;2023-02-02T11:00:55;12.00;99.90
18733;DHT22;9495;51.210;2.934;2023-02-02T11:03:28;11.00;99.90
18733;DHT22;9495;51.210;2.934;2023-02-02T11:06:01;10.80;99.90
18733;DHT22;9495;51.210;2.934;2023-02-02T11:08:49;10.70;99.90
18733;DHT22;9495;51.210;2.934;2023-02-02T11:11:24;10.70;99.90
18733;DHT22;9495;51.210;2.934;2023-02-02T11:13:56;10.70;99.90
18733;DHT22;9495;51.210;2.934;2023-02-02T11:16:27;10.50;99.90
18733;DHT22;9495;51.210;2.934;2023-02-02T11:19:22;11.00;99.90
18733;DHT22;9495;51.210;2.934;2023-02-02T11:21:53;10.50;99.90
18733;DHT22;9495;51.210;2.934;2023-02-02T11:24:26;10.40;99.90
18733;DHT22;9495;51.210;2.934;2023-02-02T11:26:58;10.80;99.90
18733;DHT22;9495;51.210;2.934;2023-02-02T11:29:29;11.50;99.90
18733;DHT22;9495;51.210;2.934;2023-02-02T11:32:23;11.20;99.90
18733;DHT22;9495;51.210;2.934;2023-02-02T11:35:13;11.00;99.90
18733;DHT22;9495;51.210;2.934;2023-02-02T11:37:55;10.50;99.90
18733;DHT22;9495;51.210;2.934;2023-02-02T11:40:32;10.90;99.90
18733;DHT22;9495;51.210;2.934;2023-02-02T11:43:03;10.60;99.90
18733;DHT22;9495;51.210;2.934;2023-02-02T11:45:35;10.30;99.90
18733;DHT22;9495;51.210;2.934;2023-02-02T11:48:11;10.30;99.90
18733;DHT22;9495;51.210;2.934;2023-02-02T11:50:44;10.40;99.90
18733;DHT22;9495;51.210;2.934;2023-02-02T11:53:26;11.00;99.90
18733;DHT22;9495;51.210;2.934;2023-02-02T11:55:59;10.50;99.90
18733;DHT22;9495;51.210;2.934;2023-02-02T11:58:31;10.50;99.90
18733;DHT22;9495;51.210;2.934;2023-02-02T12:01:22;10.90;99.90
18733;DHT22;9495;51.210;2.934;2023-02-02T12:03:52;10.90;99.90
18733;DHT22;9495;51.210;2.934;2023-02-02T12:06:22;11.30;99.90
18733;DHT22;9495;51.210;2.934;2023-02-02T12:08:55;11.70;99.90
18733;DHT22;9495;51.210;2.934;2023-02-02T12:11:37;11.80;99.90
18733;DHT22;9495;51.210;2.934;2023-02-02T12:14:26;12.40;99.90
18733;DHT22;9495;51.210;2.934;2023-02-02T12:17:07;12.40;99.90
18733;DHT22;9495;51.210;2.934;2023-02-02T12:22:45;11.80;99.90
18733;DHT22;9495;51.210;2.934;2023-02-02T12:25:35;12.50;99.90
18733;DHT22;9495;51.210;2.934;2023-02-02T12:28:12;11.80;99.90
18733;DHT22;9495;51.210;2.934;2023-02-02T12:30:47;11.80;99.90
18733;DHT22;9495;51.210;2.934;2023-02-02T12:33:24;11.20;99.90
18733;DHT22;9495;51.210;2.934;2023-02-02T12:36:19;11.10;99.90
18733;DHT22;9495;51.210;2.934;2023-02-02T12:39:12;11.50;99.90
18733;DHT22;9495;51.210;2.934;2023-02-02T12:41:56;11.80;99.90
18733;DHT22;9495;51.210;2.934;2023-02-02T12:44:33;11.20;99.90
18733;DHT22;9495;51.210;2.934;2023-02-02T12:47:13;10.90;99.90
18733;DHT22;9495;51.210;2.934;2023-02-02T12:50:14;11.20;99.90
18733;DHT22;9495;51.210;2.934;2023-02-02T12:52:57;11.00;99.90
18733;DHT22;9495;51.210;2.934;2023-02-02T12:55:34;11.00;99.90
18733;DHT22;9495;51.210;2.934;2023-02-02T12:58:11;11.40;99.90
18733;DHT22;9495;51.210;2.934;2023-02-02T13:01:00;12.00;99.90
18733;DHT22;9495;51.210;2.934;2023-02-02T13:03:51;11.70;99.90
18733;DHT22;9495;51.210;2.934;2023-02-02T13:06:47;11.50;99.90
18733;DHT22;9495;51.210;2.934;2023-02-02T13:09:26;11.50;99.90
18733;DHT22;9495;51.210;2.934;2023-02-02T13:11:59;11.30;99.90
18733;DHT22;9495;51.210;2.934;2023-02-02T13:14:33;11.60;99.90
18733;DHT22;9495;51.210;2.934;2023-02-02T13:17:07;11.80;99.90
18733;DHT22;9495;51.210;2.934;2023-02-02T13:19:40;10.80;99.90
18733;DHT22;9495;51.210;2.934;2023-02-02T13:22:12;10.80;99.90
18733;DHT22;9495;51.210;2.934;2023-02-02T13:24:46;11.30;99.90
18733;DHT22;9495;51.210;2.934;2023-02-02T13:27:17;11.50;99.90
18733;DHT22;9495;51.210;2.934;2023-02-02T13:29:51;11.60;99.90
18733;DHT22;9495;51.210;2.934;2023-02-02T13:32:25;11.40;99.90
18733;DHT22;9495;51.210;2.934;2023-02-02T13:34:59;11.40;99.90
18733;DHT22;9495;51.210;2.934;2023-02-02T13:37:33;11.10;99.90
18733;DHT22;9495;51.210;2.934;2023-02-02T13:40:14;11.00;99.90
18733;DHT22;9495;51.210;2.934;2023-02-02T13:42:46;11.30;99.90
18733;DHT22;9495;51.210;2.934;2023-02-02T13:45:32;11.60;99.90
18733;DHT22;9495;51.210;2.934;2023-02-02T13:48:15;11.40;99.90
18733;DHT22;9495;51.210;2.934;2023-02-02T13:50:52;11.40;99.90
18733;DHT22;9495;51.210;2.934;2023-02-02T13:53:51;11.40;99.90
18733;DHT22;9495;51.210;2.934;2023-02-02T13:56:37;11.70;99.90
18733;DHT22;9495;51.210;2.934;2023-02-02T13:59:41;12.00;99.90
18733;DHT22;9495;51.210;2.934;2023-02-02T14:02:19;11.90;99.90
18733;DHT22;9495;51.210;2.934;2023-02-02T14:04:55;12.00;99.90
18733;DHT22;9495;51.210;2.934;2023-02-02T14:07:27;12.30;99.90
18733;DHT22;9495;51.210;2.934;2023-02-02T14:09:57;12.60;99.90
18733;DHT22;9495;51.210;2.934;2023-02-02T14:12:29;12.80;99.90
18733;DHT22;9495;51.210;2.934;2023-02-02T14:14:58;12.70;99.90
18733;DHT22;9495;51.210;2.934;2023-02-02T14:17:58;12.70;99.90
18733;DHT22;9495;51.210;2.934;2023-02-02T14:20:43;12.40;99.90
18733;DHT22;9495;51.210;2.934;2023-02-02T14:23:49;12.50;99.90
18733;DHT22;9495;51.210;2.934;2023-02-02T14:26:39;12.30;99.90
18733;DHT22;9495;51.210;2.934;2023-02-02T14:29:34;12.40;99.90
18733;DHT22;9495;51.210;2.934;2023-02-02T14:32:32;12.10;99.90
18733;DHT22;9495;51.210;2.934;2023-02-02T14:38:26;12.20;99.90
18733;DHT22;9495;51.210;2.934;2023-02-02T14:41:04;12.20;99.90
18733;DHT22;9495;51.210;2.934;2023-02-02T14:43:44;12.00;99.90
18733;DHT22;9495;51.210;2.934;2023-02-02T14:46:37;12.40;99.90
18733;DHT22;9495;51.210;2.934;2023-02-02T14:49:23;12.30;99.90
18733;DHT22;9495;51.210;2.934;2023-02-02T14:51:58;12.00;99.90
18733;DHT22;9495;51.210;2.934;2023-02-02T14:54:39;11.70;99.90
18733;DHT22;9495;51.210;2.934;2023-02-02T14:57:21;11.70;99.90
18733;DHT22;9495;51.210;2.934;2023-02-02T14:59:52;12.00;99.90
18733;DHT22;9495;51.210;2.934;2023-02-02T15:02:23;11.50;99.90
18733;DHT22;9495;51.210;2.934;2023-02-02T15:08:22;12.00;99.90
18733;DHT22;9495;51.210;2.934;2023-02-02T15:11:07;11.80;99.90
18733;DHT22;9495;51.210;2.934;2023-02-02T15:14:00;11.90;99.90
18733;DHT22;9495;51.210;2.934;2023-02-02T15:16:36;11.50;99.90
18733;DHT22;9495;51.210;2.934;2023-02-02T15:19:13;11.70;99.90
18733;DHT22;9495;51.210;2.934;2023-02-02T15:21:46;11.60;99.90
18733;DHT22;9495;51.210;2.934;2023-02-02T15:24:20;11.80;99.90
18733;DHT22;9495;51.210;2.934;2023-02-02T15:26:51;11.90;99.90
18733;DHT22;9495;51.210;2.934;2023-02-02T15:29:31;11.60;99.90
18733;DHT22;9495;51.210;2.934;2023-02-02T15:32:01;11.10;99.90
18733;DHT22;9495;51.210;2.934;2023-02-02T15:34:37;11.40;99.90
18733;DHT22;9495;51.210;2.934;2023-02-02T15:37:11;11.20;99.90
18733;DHT22;9495;51.210;2.934;2023-02-02T15:39:44;11.10;99.90
18733;DHT22;9495;51.210;2.934;2023-02-02T15:42:19;11.70;99.90
18733;DHT22;9495;51.210;2.934;2023-02-02T15:45:23;12.90;99.90
18733;DHT22;9495;51.210;2.934;2023-02-02T15:47:57;13.10;99.90
18733;DHT22;9495;51.210;2.934;2023-02-02T15:50:26;12.60;99.90
18733;DHT22;9495;51.210;2.934;2023-02-02T15:52:55;11.60;99.90
18733;DHT22;9495;51.210;2.934;2023-02-02T15:55:29;11.80;99.90
18733;DHT22;9495;51.210;2.934;2023-02-02T15:57:59;11.80;99.90
18733;DHT22;9495;51.210;2.934;2023-02-02T16:00:30;11.80;99.90
18733;DHT22;9495;51.210;2.934;2023-02-02T16:03:02;11.50;99.90
18733;DHT22;9495;51.210;2.934;2023-02-02T16:05:44;11.10;99.90
18733;DHT22;9495;51.210;2.934;2023-02-02T16:08:16;10.90;99.90
18733;DHT22;9495;51.210;2.934;2023-02-02T16:10:46;11.00;99.90
18733;DHT22;9495;51.210;2.934;2023-02-02T16:13:26;10.90;99.90
18733;DHT22;9495;51.210;2.934;2023-02-02T16:15:57;11.00;99.90
18733;DHT22;9495;51.210;2.934;2023-02-02T16:18:26;10.70;99.90
18733;DHT22;9495;51.210;2.934;2023-02-02T16:20:57;10.70;99.90
18733;DHT22;9495;51.210;2.934;2023-02-02T16:23:30;10.70;99.90
18733;DHT22;9495;51.210;2.934;2023-02-02T16:26:02;10.80;99.90
18733;DHT22;9495;51.210;2.934;2023-02-02T16:28:33;11.20;99.90
18733;DHT22;9495;51.210;2.934;2023-02-02T16:31:02;11.20;99.90
18733;DHT22;9495;51.210;2.934;2023-02-02T16:33:36;11.30;99.90
18733;DHT22;9495;51.210;2.934;2023-02-02T16:36:16;11.10;99.90
18733;DHT22;9495;51.210;2.934;2023-02-02T16:38:52;10.90;99.90
18733;DHT22;9495;51.210;2.934;2023-02-02T16:41:26;10.80;99.90
18733;DHT22;9495;51.210;2.934;2023-02-02T16:44:34;10.70;99.90
18733;DHT22;9495;51.210;2.934;2023-02-02T16:47:05;10.90;99.90
18733;DHT22;9495;51.210;2.934;2023-02-02T16:49:34;11.00;99.90
18733;DHT22;9495;51.210;2.934;2023-02-02T16:52:09;11.00;99.90
18733;DHT22;9495;51.210;2.934;2023-02-02T16:54:39;10.90;99.90
18733;DHT22;9495;51.210;2.934;2023-02-02T16:57:17;10.90;99.90
18733;DHT22;9495;51.210;2.934;2023-02-02T16:59:49;10.80;99.90